sensor_id;sensor_type;location;lat;lon;timestamp;pressure;altitude;pressure_sealevel;temperature;humidity
57568;BME280;43403;51.948;5.922;2023-04-20T00:01:54;102269.88;;;9.45;44.07
57568;BME280;43403;51.948;5.922;2023-04-20T00:04:22;102269.88;;;9.45;44.11
57568;BME280;43403;51.948;5.922;2023-04-20T00:06:48;102266.72;;;9.40;43.92
57568;BME280;43403;51.948;5.922;2023-04-20T00:09:17;102270.47;;;9.36;44.21
57568;BME280;43403;51.948;5.922;2023-04-20T00:11:44;102260.44;;;9.30;43.94
57568;BME280;43403;51.948;5.922;2023-04-20T00:14:11;102256.44;;;9.24;44.29
57568;BME280;43403;51.948;5.922;2023-04-20T00:16:37;102250.88;;;9.16;44.26
57568;BME280;43403;51.948;5.922;2023-04-20T00:19:04;102248.56;;;9.12;44.73
57568;BME280;43403;51.948;5.922;2023-04-20T00:21:33;102244.56;;;9.06;45.21
57568;BME280;43403;51.948;5.922;2023-04-20T00:23:59;102236.19;;;9.01;45.15
57568;BME280;43403;51.948;5.922;2023-04-20T00:26:26;102225.81;;;8.99;45.51
57568;BME280;43403;51.948;5.922;2023-04-20T00:28:53;102222.78;;;8.93;45.32
57568;BME280;43403;51.948;5.922;2023-04-20T00:31:19;102215.97;;;8.90;45.41
57568;BME280;43403;51.948;5.922;2023-04-20T00:33:47;102205.69;;;8.87;45.53
57568;BME280;43403;51.948;5.922;2023-04-20T00:36:13;102200.03;;;8.80;45.88
57568;BME280;43403;51.948;5.922;2023-04-20T00:38:40;102206.84;;;8.83;45.89
57568;BME280;43403;51.948;5.922;2023-04-20T00:41:07;102197.94;;;8.85;45.67
57568;BME280;43403;51.948;5.922;2023-04-20T00:43:33;102190.81;;;8.75;45.76
57568;BME280;43403;51.948;5.922;2023-04-20T00:46:00;102190.59;;;8.78;46.03
57568;BME280;43403;51.948;5.922;2023-04-20T00:48:29;102177.63;;;8.76;46.12
57568;BME280;43403;51.948;5.922;2023-04-20T00:50:55;102176.59;;;8.79;46.10
57568;BME280;43403;51.948;5.922;2023-04-20T00:53:22;102171.84;;;8.71;45.53
57568;BME280;43403;51.948;5.922;2023-04-20T00:55:49;102166.81;;;8.68;45.75
57568;BME280;43403;51.948;5.922;2023-04-20T00:58:16;102152.25;;;8.64;46.33
57568;BME280;43403;51.948;5.922;2023-04-20T01:00:42;102161.56;;;8.68;46.83
57568;BME280;43403;51.948;5.922;2023-04-20T01:03:09;102160.09;;;8.64;46.88
57568;BME280;43403;51.948;5.922;2023-04-20T01:05:37;102146.00;;;8.66;46.44
57568;BME280;43403;51.948;5.922;2023-04-20T01:08:06;102144.22;;;8.67;46.79
57568;BME280;43403;51.948;5.922;2023-04-20T01:10:33;102134.50;;;8.69;47.03
57568;BME280;43403;51.948;5.922;2023-04-20T01:12:59;102137.84;;;8.71;46.74
57568;BME280;43403;51.948;5.922;2023-04-20T01:15:26;102131.56;;;8.74;47.24
57568;BME280;43403;51.948;5.922;2023-04-20T01:17:52;102128.44;;;8.68;47.49
57568;BME280;43403;51.948;5.922;2023-04-20T01:20:19;102135.97;;;8.73;48.43
57568;BME280;43403;51.948;5.922;2023-04-20T01:22:50;102134.19;;;8.74;48.32
57568;BME280;43403;51.948;5.922;2023-04-20T01:25:17;102128.94;;;8.74;49.33
57568;BME280;43403;51.948;5.922;2023-04-20T01:27:43;102120.91;;;8.77;49.33
57568;BME280;43403;51.948;5.922;2023-04-20T01:30:11;102122.28;;;8.82;49.58
57568;BME280;43403;51.948;5.922;2023-04-20T01:32:38;102111.09;;;8.80;49.82
57568;BME280;43403;51.948;5.922;2023-04-20T01:35:07;102092.34;;;8.86;50.71
57568;BME280;43403;51.948;5.922;2023-04-20T01:37:33;102092.25;;;8.88;50.74
57568;BME280;43403;51.948;5.922;2023-04-20T01:40:00;102094.72;;;8.89;50.58
57568;BME280;43403;51.948;5.922;2023-04-20T01:42:28;102083.44;;;8.89;51.14
57568;BME280;43403;51.948;5.922;2023-04-20T01:44:54;102087.00;;;8.88;51.52
57568;BME280;43403;51.948;5.922;2023-04-20T01:47:21;102085.22;;;8.88;51.21
57568;BME280;43403;51.948;5.922;2023-04-20T01:49:48;102092.25;;;8.88;51.43
57568;BME280;43403;51.948;5.922;2023-04-20T01:52:14;102087.94;;;8.87;51.51
57568;BME280;43403;51.948;5.922;2023-04-20T01:54:41;102070.69;;;8.84;51.40
57568;BME280;43403;51.948;5.922;2023-04-20T01:57:07;102080.72;;;8.78;52.81
57568;BME280;43403;51.948;5.922;2023-04-20T01:59:34;102076.44;;;8.77;53.24
57568;BME280;43403;51.948;5.922;2023-04-20T02:02:00;102071.09;;;8.78;53.26
57568;BME280;43403;51.948;5.922;2023-04-20T02:04:27;102060.09;;;8.73;53.27
57568;BME280;43403;51.948;5.922;2023-04-20T02:06:54;102067.53;;;8.66;53.14
57568;BME280;43403;51.948;5.922;2023-04-20T02:09:20;102066.16;;;8.61;54.19
57568;BME280;43403;51.948;5.922;2023-04-20T02:11:47;102068.56;;;8.51;54.76
57568;BME280;43403;51.948;5.922;2023-04-20T02:14:13;102067.41;;;8.55;54.66
57568;BME280;43403;51.948;5.922;2023-04-20T02:16:40;102056.94;;;8.55;55.08
57568;BME280;43403;51.948;5.922;2023-04-20T02:19:08;102050.66;;;8.58;54.23
57568;BME280;43403;51.948;5.922;2023-04-20T02:21:35;102033.59;;;8.52;54.49
57568;BME280;43403;51.948;5.922;2023-04-20T02:24:01;102039.56;;;8.54;54.79
57568;BME280;43403;51.948;5.922;2023-04-20T02:26:28;102041.91;;;8.59;55.28
57568;BME280;43403;51.948;5.922;2023-04-20T02:28:54;102045.75;;;8.66;55.57
57568;BME280;43403;51.948;5.922;2023-04-20T02:31:21;102036.25;;;8.65;55.70
57568;BME280;43403;51.948;5.922;2023-04-20T02:33:47;102036.97;;;8.67;54.85
57568;BME280;43403;51.948;5.922;2023-04-20T02:36:15;102027.75;;;8.61;55.39
57568;BME280;43403;51.948;5.922;2023-04-20T02:38:41;102026.28;;;8.70;56.74
57568;BME280;43403;51.948;5.922;2023-04-20T02:41:08;102035.00;;;8.70;55.72
57568;BME280;43403;51.948;5.922;2023-04-20T02:43:34;102027.88;;;8.73;56.74
57568;BME280;43403;51.948;5.922;2023-04-20T02:46:01;102026.09;;;8.73;56.54
57568;BME280;43403;51.948;5.922;2023-04-20T02:48:28;102020.84;;;8.73;56.65
57568;BME280;43403;51.948;5.922;2023-04-20T02:50:54;102022.50;;;8.74;56.80
57568;BME280;43403;51.948;5.922;2023-04-20T02:53:22;102007.44;;;8.78;56.59
57568;BME280;43403;51.948;5.922;2023-04-20T02:55:48;102012.50;;;8.81;56.72
57568;BME280;43403;51.948;5.922;2023-04-20T02:58:15;102003.06;;;8.78;56.61
57568;BME280;43403;51.948;5.922;2023-04-20T03:00:42;102008.38;;;8.89;56.79
57568;BME280;43403;51.948;5.922;2023-04-20T03:03:09;102018.13;;;9.00;56.16
57568;BME280;43403;51.948;5.922;2023-04-20T03:05:36;102008.38;;;9.02;56.62
57568;BME280;43403;51.948;5.922;2023-04-20T03:08:03;102012.66;;;9.03;56.87
57568;BME280;43403;51.948;5.922;2023-04-20T03:10:31;102004.94;;;9.02;57.46
57568;BME280;43403;51.948;5.922;2023-04-20T03:12:58;101999.47;;;9.05;56.63
57568;BME280;43403;51.948;5.922;2023-04-20T03:15:24;102000.44;;;9.04;57.38
57568;BME280;43403;51.948;5.922;2023-04-20T03:17:51;101989.53;;;8.97;58.64
57568;BME280;43403;51.948;5.922;2023-04-20T03:20:18;101993.16;;;9.07;58.05
57568;BME280;43403;51.948;5.922;2023-04-20T03:22:44;101969.63;;;9.07;58.11
57568;BME280;43403;51.948;5.922;2023-04-20T03:25:11;101983.13;;;9.01;58.33
57568;BME280;43403;51.948;5.922;2023-04-20T03:27:38;101974.78;;;8.96;58.68
57568;BME280;43403;51.948;5.922;2023-04-20T03:30:05;101970.06;;;9.01;58.02
57568;BME280;43403;51.948;5.922;2023-04-20T03:32:32;101973.28;;;9.05;58.23
57568;BME280;43403;51.948;5.922;2023-04-20T03:34:58;101967.13;;;9.06;58.69
57568;BME280;43403;51.948;5.922;2023-04-20T03:37:25;101965.69;;;9.02;59.00
57568;BME280;43403;51.948;5.922;2023-04-20T03:39:51;101963.56;;;9.07;58.51
57568;BME280;43403;51.948;5.922;2023-04-20T03:42:18;101969.50;;;9.09;58.73
57568;BME280;43403;51.948;5.922;2023-04-20T03:44:44;101969.50;;;9.09;58.16
57568;BME280;43403;51.948;5.922;2023-04-20T03:47:11;101974.75;;;9.09;58.47
57568;BME280;43403;51.948;5.922;2023-04-20T03:49:37;101978.81;;;9.13;58.79
57568;BME280;43403;51.948;5.922;2023-04-20T03:52:04;101978.22;;;9.09;59.27
57568;BME280;43403;51.948;5.922;2023-04-20T03:54:31;101969.41;;;9.10;59.12
57568;BME280;43403;51.948;5.922;2023-04-20T03:56:58;101963.13;;;9.13;58.47
57568;BME280;43403;51.948;5.922;2023-04-20T03:59:24;101962.28;;;9.13;59.37
57568;BME280;43403;51.948;5.922;2023-04-20T04:01:51;101957.56;;;9.18;58.91
57568;BME280;43403;51.948;5.922;2023-04-20T04:04:17;101956.72;;;9.17;59.57
57568;BME280;43403;51.948;5.922;2023-04-20T04:06:44;101953.50;;;9.14;59.99
57568;BME280;43403;51.948;5.922;2023-04-20T04:09:11;101946.47;;;9.14;59.67
57568;BME280;43403;51.948;5.922;2023-04-20T04:11:37;101946.56;;;9.13;59.80
57568;BME280;43403;51.948;5.922;2023-04-20T04:14:04;101938.28;;;9.19;58.96
57568;BME280;43403;51.948;5.922;2023-04-20T04:16:31;101927.91;;;9.17;59.41
57568;BME280;43403;51.948;5.922;2023-04-20T04:18:57;101932.56;;;9.14;59.16
57568;BME280;43403;51.948;5.922;2023-04-20T04:21:24;101927.19;;;9.15;59.97
57568;BME280;43403;51.948;5.922;2023-04-20T04:23:50;101929.22;;;9.12;60.21
57568;BME280;43403;51.948;5.922;2023-04-20T04:26:17;101929.50;;;9.20;59.41
57568;BME280;43403;51.948;5.922;2023-04-20T04:28:46;101922.38;;;9.22;59.93
57568;BME280;43403;51.948;5.922;2023-04-20T04:31:14;101915.34;;;9.22;60.64
57568;BME280;43403;51.948;5.922;2023-04-20T04:33:42;101915.44;;;9.21;60.64
57568;BME280;43403;51.948;5.922;2023-04-20T04:36:11;101913.69;;;9.21;60.09
57568;BME280;43403;51.948;5.922;2023-04-20T04:38:40;101914.81;;;9.17;61.43
57568;BME280;43403;51.948;5.922;2023-04-20T04:41:10;101919.03;;;9.20;60.27
57568;BME280;43403;51.948;5.922;2023-04-20T04:43:40;101913.28;;;9.15;61.26
57568;BME280;43403;51.948;5.922;2023-04-20T04:46:10;101916.72;;;9.15;61.38
57568;BME280;43403;51.948;5.922;2023-04-20T04:48:39;101917.56;;;9.16;61.44
57568;BME280;43403;51.948;5.922;2023-04-20T04:51:07;101921.13;;;9.15;61.25
57568;BME280;43403;51.948;5.922;2023-04-20T04:53:34;101925.63;;;9.13;61.21
57568;BME280;43403;51.948;5.922;2023-04-20T04:56:03;101923.09;;;9.24;59.31
57568;BME280;43403;51.948;5.922;2023-04-20T04:58:30;101919.84;;;9.20;60.97
57568;BME280;43403;51.948;5.922;2023-04-20T05:00:57;101919.50;;;9.25;60.94
57568;BME280;43403;51.948;5.922;2023-04-20T05:03:24;101915.00;;;9.27;60.92
57568;BME280;43403;51.948;5.922;2023-04-20T05:05:51;101921.19;;;9.26;61.14
57568;BME280;43403;51.948;5.922;2023-04-20T05:08:17;101909.91;;;9.25;60.88
57568;BME280;43403;51.948;5.922;2023-04-20T05:10:44;101920.66;;;9.34;61.78
57568;BME280;43403;51.948;5.922;2023-04-20T05:13:10;101911.00;;;9.34;60.60
57568;BME280;43403;51.948;5.922;2023-04-20T05:15:37;101914.22;;;9.38;61.34
57568;BME280;43403;51.948;5.922;2023-04-20T05:18:03;101910.66;;;9.39;61.07
57568;BME280;43403;51.948;5.922;2023-04-20T05:20:30;101914.00;;;9.41;61.15
57568;BME280;43403;51.948;5.922;2023-04-20T05:22:56;101907.94;;;9.40;61.46
57568;BME280;43403;51.948;5.922;2023-04-20T05:25:23;101899.03;;;9.43;61.44
57568;BME280;43403;51.948;5.922;2023-04-20T05:27:50;101912.16;;;9.54;61.05
57568;BME280;43403;51.948;5.922;2023-04-20T05:30:16;101913.59;;;9.58;61.08
57568;BME280;43403;51.948;5.922;2023-04-20T05:32:47;101912.75;;;9.58;61.66
57568;BME280;43403;51.948;5.922;2023-04-20T05:35:17;101916.22;;;9.58;60.92
57568;BME280;43403;51.948;5.922;2023-04-20T05:37:43;101915.19;;;9.61;61.44
57568;BME280;43403;51.948;5.922;2023-04-20T05:40:10;101905.53;;;9.61;62.51
57568;BME280;43403;51.948;5.922;2023-04-20T05:42:37;101898.28;;;9.65;62.06
57568;BME280;43403;51.948;5.922;2023-04-20T05:45:04;101904.25;;;9.67;61.97
57568;BME280;43403;51.948;5.922;2023-04-20T05:47:32;101899.63;;;9.70;62.40
57568;BME280;43403;51.948;5.922;2023-04-20T05:49:58;101899.22;;;9.64;61.52
57568;BME280;43403;51.948;5.922;2023-04-20T05:52:25;101906.41;;;9.73;61.90
57568;BME280;43403;51.948;5.922;2023-04-20T05:54:51;101905.47;;;9.74;61.83
57568;BME280;43403;51.948;5.922;2023-04-20T05:57:18;101899.88;;;9.79;62.24
57568;BME280;43403;51.948;5.922;2023-04-20T05:59:44;101895.84;;;9.86;61.12
57568;BME280;43403;51.948;5.922;2023-04-20T06:02:11;101899.28;;;9.86;62.08
57568;BME280;43403;51.948;5.922;2023-04-20T06:04:38;101901.34;;;9.94;61.57
57568;BME280;43403;51.948;5.922;2023-04-20T06:07:05;101904.31;;;10.01;61.73
57568;BME280;43403;51.948;5.922;2023-04-20T06:09:32;101905.28;;;10.11;61.31
57568;BME280;43403;51.948;5.922;2023-04-20T06:11:58;101905.91;;;10.15;60.70
57568;BME280;43403;51.948;5.922;2023-04-20T06:14:25;101895.28;;;10.16;60.72
57568;BME280;43403;51.948;5.922;2023-04-20T06:16:52;101907.69;;;10.14;61.29
57568;BME280;43403;51.948;5.922;2023-04-20T06:19:18;101889.56;;;10.11;60.97
57568;BME280;43403;51.948;5.922;2023-04-20T06:21:45;101898.38;;;10.10;60.56
57568;BME280;43403;51.948;5.922;2023-04-20T06:24:11;101899.31;;;10.09;61.36
57568;BME280;43403;51.948;5.922;2023-04-20T06:26:38;101898.59;;;10.07;60.59
57568;BME280;43403;51.948;5.922;2023-04-20T06:29:04;101891.25;;;10.12;61.32
57568;BME280;43403;51.948;5.922;2023-04-20T06:31:30;101894.56;;;10.14;61.85
57568;BME280;43403;51.948;5.922;2023-04-20T06:33:57;101892.44;;;10.19;60.64
57568;BME280;43403;51.948;5.922;2023-04-20T06:36:24;101885.88;;;10.14;61.59
57568;BME280;43403;51.948;5.922;2023-04-20T06:38:51;101897.41;;;10.11;60.95
57568;BME280;43403;51.948;5.922;2023-04-20T06:41:17;101901.00;;;10.10;61.19
57568;BME280;43403;51.948;5.922;2023-04-20T06:43:44;101894.47;;;10.16;61.84
57568;BME280;43403;51.948;5.922;2023-04-20T06:46:11;101884.19;;;10.13;61.43
57568;BME280;43403;51.948;5.922;2023-04-20T06:48:38;101891.69;;;10.17;61.22
57568;BME280;43403;51.948;5.922;2023-04-20T06:51:04;101893.88;;;10.23;61.48
57568;BME280;43403;51.948;5.922;2023-04-20T06:53:31;101891.97;;;10.25;61.12
57568;BME280;43403;51.948;5.922;2023-04-20T06:55:57;101891.69;;;10.17;61.44
57568;BME280;43403;51.948;5.922;2023-04-20T06:58:24;101893.88;;;10.12;61.26
57568;BME280;43403;51.948;5.922;2023-04-20T07:00:50;101889.44;;;10.13;61.11
57568;BME280;43403;51.948;5.922;2023-04-20T07:03:17;101889.69;;;10.09;62.45
57568;BME280;43403;51.948;5.922;2023-04-20T07:05:44;101896.50;;;10.23;61.82
57568;BME280;43403;51.948;5.922;2023-04-20T07:08:11;101897.34;;;10.24;62.66
57568;BME280;43403;51.948;5.922;2023-04-20T07:10:37;101894.34;;;10.28;63.31
57568;BME280;43403;51.948;5.922;2023-04-20T07:13:04;101895.59;;;10.36;63.38
57568;BME280;43403;51.948;5.922;2023-04-20T07:15:30;101897.34;;;10.46;62.96
57568;BME280;43403;51.948;5.922;2023-04-20T07:17:57;101895.72;;;10.45;63.24
57568;BME280;43403;51.948;5.922;2023-04-20T07:20:23;101898.06;;;10.48;63.56
57568;BME280;43403;51.948;5.922;2023-04-20T07:22:50;101902.75;;;10.45;63.25
57568;BME280;43403;51.948;5.922;2023-04-20T07:25:17;101888.78;;;10.56;63.13
57568;BME280;43403;51.948;5.922;2023-04-20T07:27:44;101902.00;;;10.54;63.45
57568;BME280;43403;51.948;5.922;2023-04-20T07:30:14;101894.16;;;10.43;63.55
57568;BME280;43403;51.948;5.922;2023-04-20T07:32:41;101895.44;;;10.48;62.48
57568;BME280;43403;51.948;5.922;2023-04-20T07:35:08;101902.50;;;10.48;62.84
57568;BME280;43403;51.948;5.922;2023-04-20T07:37:35;101897.97;;;10.50;63.67
57568;BME280;43403;51.948;5.922;2023-04-20T07:40:02;101890.47;;;10.57;63.02
57568;BME280;43403;51.948;5.922;2023-04-20T07:42:33;101888.56;;;10.59;62.73
57568;BME280;43403;51.948;5.922;2023-04-20T07:45:00;101884.84;;;10.73;62.28
57568;BME280;43403;51.948;5.922;2023-04-20T07:47:27;101885.06;;;10.81;62.69
57568;BME280;43403;51.948;5.922;2023-04-20T07:49:54;101877.88;;;10.94;61.26
57568;BME280;43403;51.948;5.922;2023-04-20T07:52:21;101886.19;;;10.99;61.49
57568;BME280;43403;51.948;5.922;2023-04-20T07:54:48;101872.94;;;11.12;62.48
57568;BME280;43403;51.948;5.922;2023-04-20T07:57:14;101866.00;;;11.11;61.34
57568;BME280;43403;51.948;5.922;2023-04-20T07:59:44;101867.41;;;11.15;61.50
57568;BME280;43403;51.948;5.922;2023-04-20T08:02:11;101873.63;;;11.25;61.32
57568;BME280;43403;51.948;5.922;2023-04-20T08:04:38;101861.19;;;11.27;61.80
57568;BME280;43403;51.948;5.922;2023-04-20T08:07:05;101875.63;;;11.33;61.39
57568;BME280;43403;51.948;5.922;2023-04-20T08:09:31;101872.59;;;11.38;61.43
57568;BME280;43403;51.948;5.922;2023-04-20T08:11:58;101866.53;;;11.37;61.31
57568;BME280;43403;51.948;5.922;2023-04-20T08:14:25;101883.44;;;11.44;61.15
57568;BME280;43403;51.948;5.922;2023-04-20T08:16:51;101880.44;;;11.49;61.09
57568;BME280;43403;51.948;5.922;2023-04-20T08:19:18;101866.09;;;11.53;61.00
57568;BME280;43403;51.948;5.922;2023-04-20T08:21:45;101868.72;;;11.53;60.88
57568;BME280;43403;51.948;5.922;2023-04-20T08:24:11;101866.75;;;11.66;60.44
57568;BME280;43403;51.948;5.922;2023-04-20T08:26:39;101867.69;;;11.65;60.46
57568;BME280;43403;51.948;5.922;2023-04-20T08:29:06;101855.53;;;11.64;60.70
57568;BME280;43403;51.948;5.922;2023-04-20T08:31:32;101858.34;;;11.73;59.79
57568;BME280;43403;51.948;5.922;2023-04-20T08:33:59;101857.38;;;11.74;60.00
57568;BME280;43403;51.948;5.922;2023-04-20T08:36:26;101853.50;;;11.78;61.00
57568;BME280;43403;51.948;5.922;2023-04-20T08:39:13;101858.06;;;11.76;61.05
57568;BME280;43403;51.948;5.922;2023-04-20T08:41:40;101859.34;;;11.81;60.79
57568;BME280;43403;51.948;5.922;2023-04-20T08:44:07;101858.28;;;11.84;61.08
57568;BME280;43403;51.948;5.922;2023-04-20T08:46:34;101853.44;;;11.68;59.76
57568;BME280;43403;51.948;5.922;2023-04-20T08:49:01;101858.00;;;11.66;60.04
57568;BME280;43403;51.948;5.922;2023-04-20T08:51:30;101860.16;;;11.72;60.14
57568;BME280;43403;51.948;5.922;2023-04-20T08:54:03;101863.00;;;11.69;60.13
57568;BME280;43403;51.948;5.922;2023-04-20T08:56:35;101852.69;;;11.77;60.62
57568;BME280;43403;51.948;5.922;2023-04-20T08:59:03;101858.91;;;11.76;60.43
57568;BME280;43403;51.948;5.922;2023-04-20T09:01:31;101858.53;;;11.81;60.38
57568;BME280;43403;51.948;5.922;2023-04-20T09:04:14;101854.38;;;11.78;60.51
57568;BME280;43403;51.948;5.922;2023-04-20T09:06:43;101847.31;;;11.79;60.95
57568;BME280;43403;51.948;5.922;2023-04-20T09:09:10;101858.34;;;11.73;60.85
57568;BME280;43403;51.948;5.922;2023-04-20T09:11:36;101853.28;;;11.81;60.95
57568;BME280;43403;51.948;5.922;2023-04-20T09:14:08;101860.75;;;11.85;60.80
57568;BME280;43403;51.948;5.922;2023-04-20T09:16:35;101856.28;;;11.76;60.44
57568;BME280;43403;51.948;5.922;2023-04-20T09:19:04;101853.44;;;11.68;60.90
57568;BME280;43403;51.948;5.922;2023-04-20T09:21:34;101850.97;;;11.66;61.19
57568;BME280;43403;51.948;5.922;2023-04-20T09:24:04;101858.97;;;11.65;60.97
57568;BME280;43403;51.948;5.922;2023-04-20T09:26:36;101860.94;;;11.52;60.96
57568;BME280;43403;51.948;5.922;2023-04-20T09:29:03;101864.00;;;11.36;61.74
57568;BME280;43403;51.948;5.922;2023-04-20T09:31:41;101862.81;;;11.40;61.34
57568;BME280;43403;51.948;5.922;2023-04-20T09:34:07;101858.28;;;11.31;62.33
57568;BME280;43403;51.948;5.922;2023-04-20T09:36:41;101866.44;;;11.27;63.52
57568;BME280;43403;51.948;5.922;2023-04-20T09:39:15;101855.94;;;11.27;62.79
57568;BME280;43403;51.948;5.922;2023-04-20T09:41:42;101862.72;;;11.30;63.78
57568;BME280;43403;51.948;5.922;2023-04-20T09:44:09;101855.66;;;11.31;63.24
57568;BME280;43403;51.948;5.922;2023-04-20T09:46:40;101860.47;;;11.25;62.64
57568;BME280;43403;51.948;5.922;2023-04-20T09:49:10;101847.97;;;11.18;62.85
57568;BME280;43403;51.948;5.922;2023-04-20T09:51:41;101850.41;;;11.31;64.06
57568;BME280;43403;51.948;5.922;2023-04-20T09:54:11;101850.25;;;11.43;64.34
57568;BME280;43403;51.948;5.922;2023-04-20T09:56:38;101853.25;;;11.60;63.03
57568;BME280;43403;51.948;5.922;2023-04-20T09:59:05;101837.31;;;11.73;61.61
57568;BME280;43403;51.948;5.922;2023-04-20T10:01:33;101839.94;;;11.73;61.07
57568;BME280;43403;51.948;5.922;2023-04-20T10:04:02;101842.22;;;11.87;60.00
57568;BME280;43403;51.948;5.922;2023-04-20T10:06:31;101850.47;;;11.94;58.88
57568;BME280;43403;51.948;5.922;2023-04-20T10:09:04;101841.09;;;12.01;59.61
57568;BME280;43403;51.948;5.922;2023-04-20T10:11:35;101840.72;;;12.05;59.54
57568;BME280;43403;51.948;5.922;2023-04-20T10:14:25;101832.13;;;12.13;59.02
57568;BME280;43403;51.948;5.922;2023-04-20T10:17:03;101825.84;;;12.25;59.29
57568;BME280;43403;51.948;5.922;2023-04-20T10:19:41;101823.63;;;12.31;58.35
57568;BME280;43403;51.948;5.922;2023-04-20T10:22:08;101814.97;;;12.50;57.91
57568;BME280;43403;51.948;5.922;2023-04-20T10:24:36;101824.03;;;12.66;57.66
57568;BME280;43403;51.948;5.922;2023-04-20T10:27:16;101820.19;;;12.90;57.75
57568;BME280;43403;51.948;5.922;2023-04-20T10:29:45;101817.41;;;13.21;56.92
57568;BME280;43403;51.948;5.922;2023-04-20T10:32:25;101800.22;;;13.36;56.37
57568;BME280;43403;51.948;5.922;2023-04-20T10:35:05;101800.31;;;13.64;54.84
57568;BME280;43403;51.948;5.922;2023-04-20T10:37:34;101789.50;;;13.67;54.32
57568;BME280;43403;51.948;5.922;2023-04-20T10:40:01;101791.94;;;14.16;54.09
57568;BME280;43403;51.948;5.922;2023-04-20T10:42:43;101789.38;;;14.52;53.17
57568;BME280;43403;51.948;5.922;2023-04-20T10:45:11;101785.56;;;14.64;53.07
57568;BME280;43403;51.948;5.922;2023-04-20T10:47:38;101791.06;;;14.53;52.21
57568;BME280;43403;51.948;5.922;2023-04-20T10:50:07;101801.22;;;14.48;52.44
57568;BME280;43403;51.948;5.922;2023-04-20T10:52:35;101799.41;;;14.48;52.30
57568;BME280;43403;51.948;5.922;2023-04-20T10:55:02;101795.16;;;14.65;53.02
57568;BME280;43403;51.948;5.922;2023-04-20T10:57:29;101787.84;;;14.59;53.05
57568;BME280;43403;51.948;5.922;2023-04-20T10:59:56;101778.25;;;14.58;52.07
57568;BME280;43403;51.948;5.922;2023-04-20T11:02:23;101777.47;;;14.48;52.41
57568;BME280;43403;51.948;5.922;2023-04-20T11:04:49;101778.47;;;14.47;51.79
57568;BME280;43403;51.948;5.922;2023-04-20T11:07:16;101783.84;;;14.27;51.86
57568;BME280;43403;51.948;5.922;2023-04-20T11:09:44;101771.63;;;14.26;52.30
57568;BME280;43403;51.948;5.922;2023-04-20T11:12:10;101789.09;;;13.99;51.80
57568;BME280;43403;51.948;5.922;2023-04-20T11:14:52;101781.53;;;13.87;52.71
57568;BME280;43403;51.948;5.922;2023-04-20T11:17:19;101774.22;;;13.71;53.53
57568;BME280;43403;51.948;5.922;2023-04-20T11:19:46;101771.31;;;13.64;53.47
57568;BME280;43403;51.948;5.922;2023-04-20T11:22:20;101773.13;;;13.63;53.35
57568;BME280;43403;51.948;5.922;2023-04-20T11:24:47;101769.25;;;13.58;53.65
57568;BME280;43403;51.948;5.922;2023-04-20T11:27:19;101764.25;;;13.64;53.49
57568;BME280;43403;51.948;5.922;2023-04-20T11:29:56;101759.94;;;13.63;53.31
57568;BME280;43403;51.948;5.922;2023-04-20T11:32:23;101752.13;;;13.72;53.30
57568;BME280;43403;51.948;5.922;2023-04-20T11:35:01;101751.41;;;13.79;53.14
57568;BME280;43403;51.948;5.922;2023-04-20T11:37:44;101753.63;;;13.84;52.92
57568;BME280;43403;51.948;5.922;2023-04-20T11:40:11;101740.59;;;13.82;53.36
57568;BME280;43403;51.948;5.922;2023-04-20T11:42:38;101748.31;;;13.94;53.44
57568;BME280;43403;51.948;5.922;2023-04-20T11:45:05;101748.06;;;13.87;53.87
57568;BME280;43403;51.948;5.922;2023-04-20T11:47:32;101746.72;;;13.73;52.89
57568;BME280;43403;51.948;5.922;2023-04-20T11:49:58;101739.44;;;13.57;53.16
57568;BME280;43403;51.948;5.922;2023-04-20T11:52:25;101737.50;;;13.50;53.15
57568;BME280;43403;51.948;5.922;2023-04-20T11:54:51;101747.63;;;13.44;53.40
57568;BME280;43403;51.948;5.922;2023-04-20T11:57:18;101752.63;;;13.48;53.23
57568;BME280;43403;51.948;5.922;2023-04-20T11:59:46;101746.09;;;13.52;54.00
57568;BME280;43403;51.948;5.922;2023-04-20T12:02:14;101747.81;;;13.43;54.01
57568;BME280;43403;51.948;5.922;2023-04-20T12:04:41;101733.63;;;13.44;54.12
57568;BME280;43403;51.948;5.922;2023-04-20T12:07:08;101743.63;;;13.40;53.68
57568;BME280;43403;51.948;5.922;2023-04-20T12:09:34;101738.22;;;13.42;54.34
57568;BME280;43403;51.948;5.922;2023-04-20T12:12:03;101734.03;;;13.49;53.96
57568;BME280;43403;51.948;5.922;2023-04-20T12:14:30;101735.44;;;13.43;54.69
57568;BME280;43403;51.948;5.922;2023-04-20T12:17:02;101737.91;;;13.55;55.07
57568;BME280;43403;51.948;5.922;2023-04-20T12:19:30;101737.66;;;13.48;55.15
57568;BME280;43403;51.948;5.922;2023-04-20T12:21:56;101730.44;;;13.40;54.71
57568;BME280;43403;51.948;5.922;2023-04-20T12:24:23;101734.91;;;13.30;54.37
57568;BME280;43403;51.948;5.922;2023-04-20T12:26:50;101732.13;;;13.22;53.91
57568;BME280;43403;51.948;5.922;2023-04-20T12:29:17;101727.59;;;13.04;54.28
57568;BME280;43403;51.948;5.922;2023-04-20T12:31:44;101733.53;;;12.97;54.26
57568;BME280;43403;51.948;5.922;2023-04-20T12:34:10;101729.97;;;12.98;54.79
57568;BME280;43403;51.948;5.922;2023-04-20T12:36:37;101731.91;;;12.96;54.91
57568;BME280;43403;51.948;5.922;2023-04-20T12:39:03;101732.41;;;12.99;55.29
57568;BME280;43403;51.948;5.922;2023-04-20T12:41:30;101727.16;;;12.99;55.69
57568;BME280;43403;51.948;5.922;2023-04-20T12:43:57;101735.91;;;13.00;55.28
57568;BME280;43403;51.948;5.922;2023-04-20T12:46:23;101728.81;;;13.10;55.05
57568;BME280;43403;51.948;5.922;2023-04-20T12:48:50;101724.25;;;13.32;54.83
57568;BME280;43403;51.948;5.922;2023-04-20T12:51:17;101726.53;;;13.44;54.22
57568;BME280;43403;51.948;5.922;2023-04-20T12:53:43;101727.06;;;13.58;53.98
57568;BME280;43403;51.948;5.922;2023-04-20T12:56:10;101728.88;;;13.57;53.44
57568;BME280;43403;51.948;5.922;2023-04-20T12:58:37;101725.72;;;13.44;54.09